createdAt,value
2018-10-03T00:00:59.991Z,6.50
2018-10-03T00:03:28.087Z,5.60
2018-10-03T00:05:56.198Z,4.28
2018-10-03T00:08:24.382Z,5.00
2018-10-03T00:10:52.559Z,4.50
2018-10-03T00:13:20.694Z,8.13
2018-10-03T00:15:48.909Z,6.30
2018-10-03T00:18:17.112Z,5.45
2018-10-03T00:20:45.320Z,5.97
2018-10-03T00:23:13.496Z,8.50
2018-10-03T00:25:41.590Z,8.70
2018-10-03T00:28:09.775Z,7.67
2018-10-03T00:30:37.866Z,6.47
2018-10-03T00:33:06.142Z,8.35
2018-10-03T00:35:34.342Z,9.15
2018-10-03T00:38:02.466Z,9.00
2018-10-03T00:40:30.570Z,7.85
2018-10-03T00:42:58.659Z,8.80
2018-10-03T00:45:26.766Z,7.97
2018-10-03T00:47:54.865Z,7.90
2018-10-03T00:50:22.959Z,8.28
2018-10-03T00:52:51.052Z,7.75
2018-10-03T00:55:19.149Z,8.48
2018-10-03T00:57:47.290Z,7.90
2018-10-03T01:00:15.560Z,7.70
2018-10-03T01:02:43.662Z,7.30
2018-10-03T01:05:11.913Z,6.25
2018-10-03T01:07:40.046Z,6.72
2018-10-03T01:10:08.159Z,7.28
2018-10-03T01:12:36.334Z,6.28
2018-10-03T01:15:04.472Z,6.60
2018-10-03T01:17:32.632Z,7.10
2018-10-03T01:20:00.750Z,6.78
2018-10-03T01:22:28.941Z,7.12
2018-10-03T01:24:57.042Z,6.65
2018-10-03T01:27:25.251Z,7.10
2018-10-03T01:29:53.481Z,6.60
2018-10-03T01:32:21.627Z,7.40
2018-10-03T01:34:49.803Z,7.78
2018-10-03T01:37:17.923Z,6.92
2018-10-03T01:39:46.022Z,6.50
2018-10-03T01:42:14.117Z,7.15
2018-10-03T01:44:42.235Z,7.53
2018-10-03T01:47:10.434Z,7.03
2018-10-03T01:49:38.613Z,7.50
2018-10-03T01:52:06.765Z,8.08
2018-10-03T01:54:34.901Z,7.15
2018-10-03T01:57:03.006Z,6.10
2018-10-03T01:59:31.110Z,8.85
2018-10-03T02:01:59.197Z,7.78
2018-10-03T02:04:27.293Z,8.48
2018-10-03T02:06:55.410Z,7.72
2018-10-03T02:09:23.533Z,7.08
2018-10-03T02:11:51.708Z,8.63
2018-10-03T02:14:20.016Z,7.85
2018-10-03T02:16:48.098Z,7.95
2018-10-03T02:19:16.885Z,6.87
2018-10-03T02:21:45.016Z,6.90
2018-10-03T02:24:13.158Z,6.78
2018-10-03T02:26:41.306Z,7.62
2018-10-03T02:29:09.459Z,7.67
2018-10-03T02:31:37.606Z,7.33
2018-10-03T02:34:05.689Z,8.33
2018-10-03T02:36:33.774Z,7.50
2018-10-03T02:39:01.959Z,7.78
2018-10-03T02:41:30.397Z,7.35
2018-10-03T02:43:58.561Z,7.33
2018-10-03T02:46:26.837Z,8.05
2018-10-03T02:48:55.006Z,8.30
2018-10-03T02:51:23.110Z,9.35
2018-10-03T02:53:51.303Z,9.25
2018-10-03T02:56:19.418Z,9.15
2018-10-03T02:58:47.566Z,8.98
2018-10-03T03:01:15.755Z,9.08
2018-10-03T03:03:44.250Z,9.50
2018-10-03T03:06:12.439Z,9.60
2018-10-03T03:08:40.716Z,9.90
2018-10-03T03:11:08.838Z,9.78
2018-10-03T03:13:36.988Z,10.80
2018-10-03T03:16:05.077Z,9.95
2018-10-03T03:18:33.250Z,9.50
2018-10-03T03:21:01.359Z,10.23
2018-10-03T03:23:29.530Z,10.45
2018-10-03T03:25:57.634Z,11.40
2018-10-03T03:28:25.803Z,10.95
2018-10-03T03:30:54.138Z,10.65
2018-10-03T03:33:22.278Z,10.55
2018-10-03T03:35:50.374Z,9.90
2018-10-03T03:38:18.990Z,10.03
2018-10-03T03:40:47.173Z,10.50
2018-10-03T03:43:15.451Z,10.68
2018-10-03T03:45:43.552Z,11.50
2018-10-03T03:48:11.722Z,11.03
2018-10-03T03:50:39.913Z,10.25
2018-10-03T03:53:08.117Z,11.38
2018-10-03T03:55:36.295Z,11.12
2018-10-03T03:58:04.499Z,10.32
2018-10-03T04:00:32.674Z,10.72
2018-10-03T04:03:00.846Z,10.63
2018-10-03T04:05:29.042Z,11.33
2018-10-03T04:07:57.214Z,10.93
2018-10-03T04:10:25.407Z,11.20
2018-10-03T04:12:53.594Z,10.70
2018-10-03T04:15:21.777Z,10.13
2018-10-03T04:17:49.973Z,11.12
2018-10-03T04:20:18.162Z,10.58
2018-10-03T04:22:46.344Z,9.88
2018-10-03T04:25:14.529Z,11.25
2018-10-03T04:27:42.726Z,10.13
2018-10-03T04:30:10.897Z,10.70
2018-10-03T04:32:39.222Z,11.03
2018-10-03T04:35:07.370Z,9.88
2018-10-03T04:37:35.561Z,9.95
2018-10-03T04:40:03.738Z,9.78
2018-10-03T04:42:31.826Z,10.45
2018-10-03T04:45:00.030Z,10.82
2018-10-03T04:47:28.210Z,10.20
2018-10-03T04:49:56.382Z,11.00
2018-10-03T04:52:24.578Z,10.53
2018-10-03T04:54:52.757Z,10.10
2018-10-03T04:57:20.847Z,9.98
2018-10-03T04:59:49.143Z,10.45
2018-10-03T05:02:17.237Z,9.88
2018-10-03T05:04:45.411Z,9.13
2018-10-03T05:07:13.608Z,9.98
2018-10-03T05:09:41.780Z,10.50
2018-10-03T05:12:09.987Z,10.32
2018-10-03T05:14:38.150Z,9.40
2018-10-03T05:17:06.486Z,9.75
2018-10-03T05:19:34.617Z,9.60
2018-10-03T05:22:02.718Z,8.95
2018-10-03T05:24:30.897Z,8.75
2018-10-03T05:26:58.998Z,8.93
2018-10-03T05:29:27.165Z,7.85
2018-10-03T05:31:55.246Z,7.72
2018-10-03T05:34:23.331Z,8.68
2018-10-03T05:36:51.571Z,8.78
2018-10-03T05:39:19.720Z,8.68
2018-10-03T05:41:47.910Z,7.87
2018-10-03T05:44:16.110Z,7.37
2018-10-03T05:46:44.285Z,7.10
2018-10-03T05:49:12.469Z,7.35
2018-10-03T05:51:40.650Z,7.47
2018-10-03T05:54:08.857Z,7.20
2018-10-03T05:56:37.026Z,6.92
2018-10-03T05:59:05.238Z,6.97
2018-10-03T06:01:33.410Z,6.67
2018-10-03T06:04:01.599Z,7.00
2018-10-03T06:06:30.038Z,6.90
2018-10-03T06:08:58.179Z,6.95
2018-10-03T06:11:27.286Z,6.92
2018-10-03T06:13:55.459Z,6.33
2018-10-03T06:16:23.650Z,6.22
2018-10-03T06:18:51.830Z,6.20
2018-10-03T06:21:20.963Z,6.00
2018-10-03T06:23:49.126Z,5.85
2018-10-03T06:26:17.347Z,6.30
2018-10-03T06:28:46.154Z,5.80
2018-10-03T06:31:14.302Z,5.67
2018-10-03T06:33:42.535Z,5.50
2018-10-03T06:36:10.674Z,5.47
2018-10-03T06:38:38.882Z,5.30
2018-10-03T06:41:07.066Z,5.87
2018-10-03T06:43:35.255Z,5.70
2018-10-03T06:46:03.444Z,6.22
2018-10-03T06:48:31.622Z,5.65
2018-10-03T06:50:59.819Z,5.42
2018-10-03T06:53:27.986Z,6.67
2018-10-03T06:55:56.190Z,7.28
2018-10-03T06:58:24.376Z,6.55
2018-10-03T07:00:52.546Z,5.65
2018-10-03T07:03:20.742Z,6.37
2018-10-03T07:05:49.011Z,6.05
2018-10-03T07:08:17.129Z,5.17
2018-10-03T07:10:45.504Z,5.45
2018-10-03T07:13:13.683Z,5.75
2018-10-03T07:15:41.790Z,5.15
2018-10-03T07:18:10.000Z,4.78
2018-10-03T07:20:38.156Z,4.95
2018-10-03T07:23:06.466Z,4.50
2018-10-03T07:25:34.620Z,4.45
2018-10-03T07:28:02.827Z,4.75
2018-10-03T07:30:30.986Z,4.87
2018-10-03T07:32:59.090Z,4.12
2018-10-03T07:35:27.262Z,4.87
2018-10-03T07:37:55.456Z,3.77
2018-10-03T07:40:23.646Z,4.22
2018-10-03T07:42:51.830Z,3.80
2018-10-03T07:45:20.018Z,3.85
2018-10-03T07:47:48.313Z,4.03
2018-10-03T07:50:16.494Z,3.20
2018-10-03T07:52:44.585Z,3.45
2018-10-03T07:55:12.737Z,3.58
2018-10-03T07:57:40.849Z,3.52
2018-10-03T08:00:09.267Z,3.65
2018-10-03T08:02:37.562Z,3.50
2018-10-03T08:05:05.698Z,3.12
2018-10-03T08:07:33.798Z,3.87
2018-10-03T08:10:01.984Z,4.85
2018-10-03T08:12:30.105Z,3.55
2018-10-03T08:14:58.242Z,5.08
2018-10-03T08:17:26.437Z,2.92
2018-10-03T08:19:54.596Z,2.52
2018-10-03T08:22:22.742Z,2.60
2018-10-03T08:24:50.899Z,3.12
2018-10-03T08:27:19.091Z,2.70
2018-10-03T08:29:47.290Z,2.45
2018-10-03T08:32:15.552Z,3.08
2018-10-03T08:34:43.638Z,2.90
2018-10-03T08:37:11.722Z,3.12
2018-10-03T08:39:39.821Z,2.90
2018-10-03T08:42:07.994Z,2.25
2018-10-03T08:44:36.095Z,3.27
2018-10-03T08:47:04.273Z,3.02
2018-10-03T08:49:32.457Z,3.00
2018-10-03T08:52:00.723Z,3.70
2018-10-03T08:54:28.829Z,3.30
2018-10-03T08:56:56.906Z,3.30
2018-10-03T08:59:24.998Z,3.00
2018-10-03T09:01:53.074Z,3.08
2018-10-03T09:04:21.165Z,2.90
2018-10-03T09:06:49.245Z,2.87
2018-10-03T09:09:17.382Z,3.10
2018-10-03T09:11:45.544Z,3.30
2018-10-03T09:14:13.609Z,2.58
2018-10-03T09:16:41.803Z,3.12
2018-10-03T09:19:09.992Z,3.60
2018-10-03T09:21:38.167Z,3.10
2018-10-03T09:24:06.258Z,2.98
2018-10-03T09:26:34.346Z,3.30
2018-10-03T09:29:02.524Z,3.50
2018-10-03T09:31:30.844Z,3.22
2018-10-03T09:33:59.034Z,3.52
2018-10-03T09:36:27.113Z,3.20
2018-10-03T09:38:55.291Z,2.75
2018-10-03T09:41:24.398Z,2.83
2018-10-03T09:43:52.587Z,3.40
2018-10-03T09:46:20.770Z,2.58
2018-10-03T09:48:48.966Z,2.92
2018-10-03T09:51:17.154Z,2.55
2018-10-03T09:53:45.342Z,4.22
2018-10-03T09:56:13.510Z,4.03
2018-10-03T09:58:41.722Z,3.92
2018-10-03T10:01:15.221Z,3.87
2018-10-03T10:03:43.416Z,3.47
2018-10-03T10:06:11.613Z,3.45
2018-10-03T10:08:39.793Z,3.70
2018-10-03T10:11:07.990Z,3.27
2018-10-03T10:13:36.985Z,3.70
2018-10-03T10:16:05.146Z,4.37
2018-10-03T10:18:33.346Z,3.72
2018-10-03T10:21:01.540Z,3.83
2018-10-03T10:23:29.719Z,3.85
2018-10-03T10:25:57.924Z,3.80
2018-10-03T10:28:26.102Z,3.75
2018-10-03T10:30:54.310Z,3.70
2018-10-03T10:33:22.472Z,3.80
2018-10-03T10:35:50.652Z,3.75
2018-10-03T10:38:18.858Z,3.77
2018-10-03T10:40:47.236Z,4.28
2018-10-03T10:43:15.698Z,3.60
2018-10-03T10:45:44.238Z,4.05
2018-10-03T10:48:12.917Z,4.47
2018-10-03T10:50:40.999Z,3.58
2018-10-03T10:53:09.310Z,4.03
2018-10-03T10:55:37.491Z,3.87
2018-10-03T10:58:05.900Z,3.52
2018-10-03T11:00:34.395Z,3.85
2018-10-03T11:03:02.575Z,4.22
2018-10-03T11:05:30.717Z,4.20
2018-10-03T11:07:58.838Z,4.15
2018-10-03T11:10:27.329Z,3.80
2018-10-03T11:12:55.518Z,3.80
2018-10-03T11:15:23.702Z,4.17
2018-10-03T11:17:51.937Z,3.60
2018-10-03T11:20:20.083Z,4.30
2018-10-03T11:22:48.239Z,4.05
2018-10-03T11:25:16.442Z,4.08
2018-10-03T11:27:44.766Z,3.67
2018-10-03T11:30:12.914Z,4.53
2018-10-03T11:32:41.097Z,4.20
2018-10-03T11:35:09.311Z,3.83
2018-10-03T11:37:37.462Z,3.50
2018-10-03T11:40:06.134Z,4.25
2018-10-03T11:42:34.251Z,5.00
2018-10-03T11:45:02.432Z,3.65
2018-10-03T11:47:30.510Z,3.65
2018-10-03T11:49:58.609Z,3.87
2018-10-03T11:52:26.838Z,3.42
2018-10-03T11:54:54.998Z,3.52
2018-10-03T11:57:23.308Z,3.50
2018-10-03T11:59:52.486Z,3.42
2018-10-03T12:02:20.678Z,2.80
2018-10-03T12:04:48.858Z,3.83
2018-10-03T12:07:17.047Z,3.50
2018-10-03T12:09:45.226Z,2.80
2018-10-03T12:12:13.422Z,3.45
2018-10-03T12:14:41.595Z,3.45
2018-10-03T12:17:09.789Z,3.00
2018-10-03T12:19:37.982Z,3.08
2018-10-03T12:22:06.220Z,3.62
2018-10-03T12:24:34.426Z,3.30
2018-10-03T12:27:02.563Z,3.22
2018-10-03T12:29:30.729Z,3.67
2018-10-03T12:31:58.835Z,3.80
2018-10-03T12:34:27.134Z,3.22
2018-10-03T12:36:55.218Z,4.17
2018-10-03T12:39:23.362Z,3.85
2018-10-03T12:41:51.446Z,3.10
2018-10-03T12:44:19.632Z,3.60
2018-10-03T12:46:47.748Z,3.62
2018-10-03T12:49:15.994Z,3.98
2018-10-03T12:51:44.112Z,4.17
2018-10-03T12:54:12.271Z,5.20
2018-10-03T12:56:40.385Z,4.40
2018-10-03T12:59:08.555Z,3.90
2018-10-03T13:01:37.050Z,4.15
2018-10-03T13:04:05.264Z,3.02
2018-10-03T13:06:33.437Z,4.22
2018-10-03T13:09:01.626Z,3.52
2018-10-03T13:11:29.814Z,3.25
2018-10-03T13:13:58.003Z,4.60
2018-10-03T13:16:27.103Z,4.92
2018-10-03T13:18:55.324Z,3.50
2018-10-03T13:21:23.478Z,3.35
2018-10-03T13:23:51.662Z,3.35
2018-10-03T13:26:19.850Z,3.00
2018-10-03T13:28:48.102Z,3.27
2018-10-03T13:31:16.274Z,3.40
2018-10-03T13:33:45.466Z,3.42
2018-10-03T13:36:13.625Z,3.22
2018-10-03T13:38:41.809Z,2.83
2018-10-03T13:41:09.979Z,3.40
2018-10-03T13:43:38.167Z,2.80
2018-10-03T13:46:06.321Z,2.67
2018-10-03T13:48:34.498Z,3.37
2018-10-03T13:51:02.714Z,3.22
2018-10-03T13:53:30.879Z,3.30
2018-10-03T13:55:59.062Z,3.20
2018-10-03T13:58:27.206Z,3.75
2018-10-03T14:00:55.378Z,3.35
2018-10-03T14:03:23.572Z,3.22
2018-10-03T14:05:51.814Z,3.30
2018-10-03T14:08:19.962Z,3.70
2018-10-03T14:10:48.251Z,3.25
2018-10-03T14:13:16.526Z,3.42
2018-10-03T14:15:44.639Z,3.35
2018-10-03T14:18:12.797Z,3.72
2018-10-03T14:20:41.104Z,2.65
2018-10-03T14:23:09.278Z,3.33
2018-10-03T14:25:37.478Z,3.60
2018-10-03T14:28:05.653Z,2.95
2018-10-03T14:30:33.834Z,4.00
2018-10-03T14:33:02.112Z,3.52
2018-10-03T14:35:30.207Z,3.62
2018-10-03T14:37:58.422Z,2.87
2018-10-03T14:40:26.610Z,3.45
2018-10-03T14:42:54.773Z,2.85
2018-10-03T14:45:22.953Z,3.10
2018-10-03T14:47:51.040Z,3.10
2018-10-03T14:50:19.218Z,3.02
2018-10-03T14:52:47.435Z,2.95
2018-10-03T14:55:15.611Z,3.42
2018-10-03T14:57:43.803Z,2.75
2018-10-03T15:00:11.981Z,2.85
2018-10-03T15:02:40.122Z,3.12
2018-10-03T15:05:08.581Z,3.00
2018-10-03T15:07:36.761Z,2.60
2018-10-03T15:10:04.953Z,3.12
2018-10-03T15:12:33.106Z,2.98
2018-10-03T15:15:01.351Z,2.60
2018-10-03T15:17:29.515Z,2.90
2018-10-03T15:19:57.678Z,2.87
2018-10-03T15:22:25.849Z,3.00
2018-10-03T15:24:54.047Z,2.87
2018-10-03T15:27:22.294Z,3.65
2018-10-03T15:29:50.470Z,2.65
2018-10-03T15:32:18.617Z,2.85
2018-10-03T15:34:46.810Z,2.85
2018-10-03T15:37:15.019Z,2.27
2018-10-03T15:39:43.179Z,2.58
2018-10-03T15:42:11.459Z,2.77
2018-10-03T15:44:39.570Z,2.60
2018-10-03T15:47:07.725Z,2.15
2018-10-03T15:49:35.825Z,2.55
2018-10-03T15:52:03.998Z,1.95
2018-10-03T15:54:32.194Z,2.90
2018-10-03T15:57:00.365Z,2.20
2018-10-03T15:59:28.582Z,3.27
2018-10-03T16:01:56.755Z,2.98
2018-10-03T16:04:24.946Z,3.20
2018-10-03T16:06:53.126Z,3.12
2018-10-03T16:09:21.221Z,3.30
2018-10-03T16:11:49.382Z,2.92
2018-10-03T16:14:17.510Z,2.98
2018-10-03T16:16:45.719Z,3.42
2018-10-03T16:19:13.864Z,3.40
2018-10-03T16:21:42.167Z,3.20
2018-10-03T16:24:10.342Z,2.70
2018-10-03T16:26:38.553Z,2.85
2018-10-03T16:29:06.729Z,2.50
2018-10-03T16:31:34.874Z,3.10
2018-10-03T16:34:02.958Z,2.98
2018-10-03T16:36:31.063Z,3.08
2018-10-03T16:38:59.327Z,3.33
2018-10-03T16:41:27.317Z,3.30
2018-10-03T16:43:55.402Z,3.50
2018-10-03T16:46:23.502Z,3.62
2018-10-03T16:48:51.662Z,3.80
2018-10-03T16:51:19.786Z,2.98
2018-10-03T16:53:47.955Z,2.92
2018-10-03T16:56:16.159Z,3.92
2018-10-03T16:58:44.339Z,3.45
2018-10-03T17:01:12.529Z,2.87
2018-10-03T17:03:40.721Z,3.27
2018-10-03T17:06:08.886Z,3.22
2018-10-03T17:08:37.055Z,2.98
2018-10-03T17:11:05.153Z,2.98
2018-10-03T17:13:33.334Z,3.35
2018-10-03T17:16:01.422Z,3.12
2018-10-03T17:18:29.602Z,3.52
2018-10-03T17:20:57.718Z,3.65
2018-10-03T17:23:25.865Z,3.10
2018-10-03T17:25:53.971Z,3.22
2018-10-03T17:28:22.150Z,3.40
2018-10-03T17:30:50.247Z,3.20
2018-10-03T17:33:18.422Z,3.70
2018-10-03T17:35:46.518Z,3.37
2018-10-03T17:38:14.711Z,4.20
2018-10-03T17:40:42.900Z,3.08
2018-10-03T17:43:11.058Z,3.42
2018-10-03T17:45:39.153Z,3.60
2018-10-03T17:48:07.326Z,3.22
2018-10-03T17:50:36.073Z,3.12
2018-10-03T17:53:04.222Z,3.10
2018-10-03T17:55:32.349Z,3.87
2018-10-03T17:58:00.514Z,3.62
2018-10-03T18:00:28.682Z,3.55
2018-10-03T18:02:56.763Z,3.95
2018-10-03T18:05:24.859Z,3.98
2018-10-03T18:07:53.034Z,3.70
2018-10-03T18:10:21.131Z,4.22
2018-10-03T18:12:49.297Z,4.25
2018-10-03T18:15:17.474Z,4.67
2018-10-03T18:17:45.583Z,4.65
2018-10-03T18:20:13.783Z,4.25
2018-10-03T18:22:41.950Z,6.80
2018-10-03T18:25:10.050Z,5.83
2018-10-03T18:27:38.234Z,5.20
2018-10-03T18:30:07.008Z,4.72
2018-10-03T18:32:35.258Z,4.45
2018-10-03T18:35:03.326Z,3.98
2018-10-03T18:37:31.493Z,3.65
2018-10-03T18:39:59.674Z,3.83
2018-10-03T18:42:27.778Z,3.50
2018-10-03T18:44:56.035Z,3.80
2018-10-03T18:47:24.036Z,3.55
2018-10-03T18:49:52.266Z,3.50
2018-10-03T18:52:20.543Z,3.77
2018-10-03T18:54:48.666Z,3.42
2018-10-03T18:57:16.828Z,3.35
2018-10-03T18:59:45.055Z,3.50
2018-10-03T19:02:13.162Z,4.10
2018-10-03T19:04:41.382Z,3.60
2018-10-03T19:07:09.546Z,3.47
2018-10-03T19:09:37.758Z,3.85
2018-10-03T19:12:05.948Z,4.75
2018-10-03T19:14:34.164Z,4.25
2018-10-03T19:17:02.285Z,3.98
2018-10-03T19:19:30.507Z,4.20
2018-10-03T19:21:58.673Z,4.15
2018-10-03T19:24:26.882Z,4.03
2018-10-03T19:26:55.062Z,4.00
2018-10-03T19:29:23.211Z,4.28
2018-10-03T19:31:51.438Z,4.53
2018-10-03T19:34:19.575Z,4.67
2018-10-03T19:36:47.681Z,4.03
2018-10-03T19:39:15.900Z,4.42
2018-10-03T19:41:44.062Z,4.53
2018-10-03T19:44:12.274Z,4.20
2018-10-03T19:46:40.418Z,4.33
2018-10-03T19:49:08.650Z,3.70
2018-10-03T19:51:36.831Z,4.78
2018-10-03T19:54:04.990Z,4.72
2018-10-03T19:56:33.215Z,4.62
2018-10-03T19:59:01.338Z,5.05
2018-10-03T20:01:29.478Z,4.70
2018-10-03T20:03:57.706Z,4.50
2018-10-03T20:06:25.850Z,3.67
2018-10-03T20:08:54.004Z,3.70
2018-10-03T20:11:22.231Z,4.12
2018-10-03T20:13:50.376Z,3.30
2018-10-03T20:16:18.510Z,3.90
2018-10-03T20:18:46.654Z,3.70
2018-10-03T20:21:14.906Z,3.17
2018-10-03T20:23:43.076Z,3.62
2018-10-03T20:26:11.270Z,3.80
2018-10-03T20:28:39.450Z,3.33
2018-10-03T20:31:07.594Z,3.17
2018-10-03T20:33:35.808Z,3.65
2018-10-03T20:36:04.011Z,4.58
2018-10-03T20:38:32.106Z,4.15
2018-10-03T20:41:00.222Z,3.90
2018-10-03T20:43:28.745Z,4.75
2018-10-03T20:45:56.950Z,4.67
2018-10-03T20:48:25.143Z,3.67
2018-10-03T20:50:53.316Z,3.72
2018-10-03T20:53:21.480Z,4.42
2018-10-03T20:55:49.690Z,4.20
2018-10-03T20:58:18.933Z,3.90
2018-10-03T21:00:47.103Z,4.05
2018-10-03T21:03:15.266Z,3.45
2018-10-03T21:05:43.436Z,3.65
2018-10-03T21:08:11.603Z,4.00
2018-10-03T21:10:39.856Z,3.80
2018-10-03T21:13:08.017Z,3.58
2018-10-03T21:15:36.172Z,3.95
2018-10-03T21:18:05.286Z,3.22
2018-10-03T21:20:33.512Z,4.33
2018-10-03T21:23:01.653Z,4.00
2018-10-03T21:25:29.962Z,4.30
2018-10-03T21:27:58.138Z,4.12
2018-10-03T21:30:26.366Z,3.30
2018-10-03T21:32:54.531Z,3.83
2018-10-03T21:35:22.712Z,4.00
2018-10-03T21:37:50.932Z,4.33
2018-10-03T21:40:19.106Z,4.33
2018-10-03T21:42:47.288Z,3.55
2018-10-03T21:45:15.436Z,4.60
2018-10-03T21:47:44.065Z,4.10
2018-10-03T21:50:12.226Z,3.98
2018-10-03T21:52:40.438Z,3.42
2018-10-03T21:55:08.692Z,3.90
2018-10-03T21:57:36.838Z,3.95
2018-10-03T22:00:06.540Z,3.80
2018-10-03T22:02:34.792Z,4.05
2018-10-03T22:05:03.031Z,3.75
2018-10-03T22:07:31.162Z,3.92
2018-10-03T22:09:59.294Z,4.10
2018-10-03T22:12:27.471Z,4.37
2018-10-03T22:14:55.643Z,4.50
2018-10-03T22:17:25.469Z,3.92
2018-10-03T22:19:55.113Z,4.05
2018-10-03T22:22:23.294Z,3.75
2018-10-03T22:24:51.467Z,4.22
2018-10-03T22:27:19.626Z,3.72
2018-10-03T22:29:48.775Z,4.15
2018-10-03T22:32:16.994Z,3.37
2018-10-03T22:34:45.202Z,3.95
2018-10-03T22:37:13.430Z,4.10
2018-10-03T22:39:42.038Z,4.03
2018-10-03T22:42:10.334Z,4.08
2018-10-03T22:44:38.523Z,4.20
2018-10-03T22:47:06.886Z,4.53
2018-10-03T22:49:35.066Z,3.50
2018-10-03T22:52:03.261Z,3.92
2018-10-03T22:54:31.453Z,4.62
2018-10-03T22:56:59.606Z,3.40
2018-10-03T22:59:27.706Z,3.27
2018-10-03T23:01:56.005Z,4.12
2018-10-03T23:04:24.182Z,3.90
2018-10-03T23:06:52.360Z,3.83
2018-10-03T23:09:20.574Z,4.03
2018-10-03T23:11:48.746Z,4.10
2018-10-03T23:14:16.968Z,4.20
2018-10-03T23:16:45.114Z,3.92
2018-10-03T23:19:13.324Z,4.40
2018-10-03T23:21:41.465Z,3.67
2018-10-03T23:24:09.558Z,4.03
2018-10-03T23:26:37.642Z,3.35
2018-10-03T23:29:05.845Z,4.15
2018-10-03T23:31:34.258Z,3.95
2018-10-03T23:34:02.407Z,3.95
2018-10-03T23:36:30.501Z,3.65
2018-10-03T23:38:58.674Z,4.75
2018-10-03T23:41:26.771Z,3.70
2018-10-03T23:43:54.950Z,4.00
2018-10-03T23:46:23.033Z,3.65
2018-10-03T23:48:51.115Z,3.60
2018-10-03T23:51:19.215Z,4.15
2018-10-03T23:53:47.394Z,4.20
2018-10-03T23:56:15.498Z,3.80
2018-10-03T23:58:43.650Z,3.40
